createdAt,value
2022-09-09T00:01:37.858Z,15.67
2022-09-09T00:04:19.700Z,15.66
2022-09-09T00:06:54.689Z,15.66
2022-09-09T00:09:25.743Z,15.66
2022-09-09T00:12:16.897Z,15.66
2022-09-09T00:14:57.963Z,15.63
2022-09-09T00:17:40.858Z,15.60
2022-09-09T00:20:15.988Z,15.57
2022-09-09T00:22:51.514Z,15.57
2022-09-09T00:25:52.496Z,15.56
2022-09-09T00:28:21.815Z,15.51
2022-09-09T00:30:51.145Z,15.50
2022-09-09T00:33:23.269Z,15.50
2022-09-09T00:35:51.948Z,15.48
2022-09-09T00:38:40.321Z,15.46
2022-09-09T00:41:26.340Z,15.42
2022-09-09T00:44:24.156Z,15.43
2022-09-09T00:47:09.962Z,15.40
2022-09-09T00:49:42.388Z,15.37
2022-09-09T00:52:19.475Z,15.34
2022-09-09T00:54:48.881Z,15.32
2022-09-09T00:57:24.649Z,15.33
2022-09-09T01:00:01.902Z,15.32
2022-09-09T01:02:45.702Z,15.33
2022-09-09T01:05:21.808Z,15.33
2022-09-09T01:07:52.239Z,15.31
2022-09-09T01:10:48.519Z,15.27
2022-09-09T01:13:23.649Z,15.28
2022-09-09T01:15:51.494Z,15.25
2022-09-09T01:18:21.159Z,15.27
2022-09-09T01:20:50.806Z,15.25
2022-09-09T01:23:55.125Z,15.27
2022-09-09T01:26:28.083Z,15.23
2022-09-09T01:28:55.635Z,15.23
2022-09-09T01:31:39.615Z,15.22
2022-09-09T01:34:31.640Z,15.19
2022-09-09T01:37:09.236Z,15.16
2022-09-09T01:39:40.023Z,15.16
2022-09-09T01:42:10.060Z,15.15
2022-09-09T01:44:43.432Z,15.14
2022-09-09T01:47:11.547Z,15.13
2022-09-09T01:49:39.259Z,15.13
2022-09-09T01:52:07.080Z,15.13
2022-09-09T01:54:34.233Z,15.15
2022-09-09T01:57:34.337Z,15.17
2022-09-09T02:00:14.825Z,15.16
2022-09-09T02:02:55.118Z,15.14
2022-09-09T02:05:51.055Z,15.16
2022-09-09T02:08:46.515Z,15.14
2022-09-09T02:11:15.936Z,15.11
2022-09-09T02:14:03.423Z,15.09
2022-09-09T02:16:43.619Z,15.11
2022-09-09T02:19:18.164Z,15.11
2022-09-09T02:21:46.746Z,15.09
2022-09-09T02:24:17.045Z,15.06
2022-09-09T02:26:53.236Z,15.07
2022-09-09T02:29:28.152Z,15.04
2022-09-09T02:31:58.396Z,15.04
2022-09-09T02:34:28.811Z,15.06
2022-09-09T02:36:58.187Z,15.04
2022-09-09T02:39:24.791Z,15.02
2022-09-09T02:41:51.388Z,15.02
2022-09-09T02:44:19.664Z,15.03
2022-09-09T02:46:58.025Z,15.03
2022-09-09T02:49:43.280Z,15.02
2022-09-09T02:52:17.257Z,15.00
2022-09-09T02:54:44.582Z,15.00
2022-09-09T02:57:22.100Z,15.00
2022-09-09T02:59:49.032Z,14.97
2022-09-09T03:02:19.799Z,14.95
2022-09-09T03:04:54.405Z,14.94
2022-09-09T03:07:21.989Z,14.95
2022-09-09T03:09:49.108Z,14.92
2022-09-09T03:12:15.895Z,14.93
2022-09-09T03:14:42.900Z,14.96
2022-09-09T03:17:10.307Z,14.96
2022-09-09T03:19:37.179Z,14.96
2022-09-09T03:22:05.171Z,14.97
2022-09-09T03:24:31.803Z,14.95
2022-09-09T03:26:58.512Z,14.92
2022-09-09T03:29:25.362Z,14.91
2022-09-09T03:31:52.189Z,14.90
2022-09-09T03:34:18.928Z,14.89
2022-09-09T03:36:47.262Z,14.89
2022-09-09T03:39:15.244Z,14.89
2022-09-09T03:41:42.878Z,14.89
2022-09-09T03:44:09.498Z,14.88
2022-09-09T03:46:36.137Z,14.86
2022-09-09T03:49:03.409Z,14.84
2022-09-09T03:51:30.072Z,14.83
2022-09-09T03:53:57.857Z,14.84
2022-09-09T03:56:25.249Z,14.82
2022-09-09T03:58:51.803Z,14.82
2022-09-09T04:01:19.571Z,14.83
2022-09-09T04:03:46.405Z,14.86
2022-09-09T04:06:15.614Z,14.82
2022-09-09T04:08:42.780Z,14.81
2022-09-09T04:11:10.747Z,14.81
2022-09-09T04:13:40.109Z,14.78
2022-09-09T04:16:07.845Z,14.79
2022-09-09T04:18:35.706Z,14.79
2022-09-09T04:21:04.639Z,14.78
2022-09-09T04:23:31.735Z,14.75
2022-09-09T04:26:00.371Z,14.75
2022-09-09T04:28:29.863Z,14.72
2022-09-09T04:30:57.946Z,14.71
2022-09-09T04:33:28.563Z,14.71
2022-09-09T04:35:55.222Z,14.70
2022-09-09T04:38:23.989Z,14.71
2022-09-09T04:40:52.862Z,14.73
2022-09-09T04:43:23.228Z,14.72
2022-09-09T04:45:52.282Z,14.69
2022-09-09T04:48:19.918Z,14.71
2022-09-09T04:50:55.766Z,14.72
2022-09-09T04:53:23.125Z,14.70
2022-09-09T04:55:50.303Z,14.70
2022-09-09T04:58:16.965Z,14.70
2022-09-09T05:00:43.620Z,14.68
2022-09-09T05:03:10.491Z,14.69
2022-09-09T05:05:37.172Z,14.69
2022-09-09T05:08:07.665Z,14.66
2022-09-09T05:10:35.037Z,14.68
2022-09-09T05:13:01.683Z,14.67
2022-09-09T05:15:28.321Z,14.67
2022-09-09T05:18:01.760Z,14.66
2022-09-09T05:20:28.693Z,14.66
2022-09-09T05:22:57.440Z,14.66
2022-09-09T05:25:28.413Z,14.63
2022-09-09T05:28:00.611Z,14.61
2022-09-09T05:30:27.400Z,14.59
2022-09-09T05:32:57.598Z,14.59
2022-09-09T05:35:24.188Z,14.60
2022-09-09T05:37:50.784Z,14.60
2022-09-09T05:40:17.414Z,14.61
2022-09-09T05:42:44.136Z,14.61
2022-09-09T05:45:11.009Z,14.62
2022-09-09T05:47:38.400Z,14.63
2022-09-09T05:50:05.768Z,14.64
2022-09-09T05:52:32.923Z,14.65
2022-09-09T05:55:00.308Z,14.67
2022-09-09T05:57:26.914Z,14.66
2022-09-09T05:59:54.699Z,14.65
2022-09-09T06:02:21.583Z,14.65
2022-09-09T06:04:52.661Z,14.66
2022-09-09T06:07:19.250Z,14.66
2022-09-09T06:09:45.819Z,14.68
2022-09-09T06:12:12.436Z,14.69
2022-09-09T06:14:40.340Z,14.70
2022-09-09T06:17:09.876Z,14.72
2022-09-09T06:19:36.543Z,14.73
2022-09-09T06:22:03.157Z,14.75
2022-09-09T06:24:31.330Z,14.75
2022-09-09T06:26:59.003Z,14.75
2022-09-09T06:29:26.402Z,14.75
2022-09-09T06:31:53.150Z,14.76
2022-09-09T06:34:19.790Z,14.76
2022-09-09T06:36:47.196Z,14.78
2022-09-09T06:39:15.293Z,14.78
2022-09-09T06:41:43.631Z,14.81
2022-09-09T06:44:14.320Z,14.81
2022-09-09T06:46:41.338Z,14.81
2022-09-09T06:49:09.884Z,14.81
2022-09-09T06:51:44.161Z,14.81
2022-09-09T06:54:12.536Z,14.82
2022-09-09T06:56:43.056Z,14.83
2022-09-09T06:59:11.111Z,14.83
2022-09-09T07:01:43.385Z,14.84
2022-09-09T07:04:11.905Z,14.86
2022-09-09T07:06:44.193Z,14.86
2022-09-09T07:09:13.347Z,14.87
2022-09-09T07:11:43.377Z,14.89
2022-09-09T07:14:14.965Z,14.92
2022-09-09T07:16:43.169Z,14.94
2022-09-09T07:19:10.684Z,15.00
2022-09-09T07:21:37.601Z,15.01
2022-09-09T07:24:08.304Z,14.99
2022-09-09T07:26:35.404Z,15.00
2022-09-09T07:29:04.989Z,15.04
2022-09-09T07:31:37.314Z,15.10
2022-09-09T07:34:05.276Z,15.13
2022-09-09T07:36:34.378Z,15.17
2022-09-09T07:39:07.130Z,15.22
2022-09-09T07:41:41.127Z,15.25
2022-09-09T07:44:11.833Z,15.32
2022-09-09T07:46:40.783Z,15.38
2022-09-09T07:49:08.487Z,15.49
2022-09-09T07:51:37.393Z,15.60
2022-09-09T07:54:08.060Z,15.72
2022-09-09T07:56:34.968Z,15.88
2022-09-09T07:59:02.324Z,16.03
2022-09-09T08:01:35.287Z,16.19
2022-09-09T08:04:04.637Z,16.32
2022-09-09T08:06:36.675Z,16.38
2022-09-09T08:09:03.668Z,16.29
2022-09-09T08:11:35.335Z,16.24
2022-09-09T08:14:05.396Z,16.24
2022-09-09T08:16:37.498Z,16.33
2022-09-09T08:19:04.996Z,16.59
2022-09-09T08:21:34.191Z,16.87
2022-09-09T08:24:03.973Z,17.07
2022-09-09T08:26:36.171Z,17.09
2022-09-09T08:29:05.833Z,17.01
2022-09-09T08:31:38.223Z,16.97
2022-09-09T08:34:06.794Z,17.03
2022-09-09T08:36:37.695Z,17.12
2022-09-09T08:39:06.379Z,17.26
2022-09-09T08:41:52.038Z,17.43
2022-09-09T08:44:48.129Z,17.57
2022-09-09T08:47:50.339Z,17.53
2022-09-09T08:50:27.759Z,17.42
2022-09-09T08:53:32.149Z,17.32
2022-09-09T08:56:10.721Z,17.21
2022-09-09T08:58:50.862Z,17.20
2022-09-09T09:01:22.254Z,17.16
2022-09-09T09:04:03.756Z,17.13
2022-09-09T09:06:37.418Z,17.14
2022-09-09T09:09:09.469Z,17.13
2022-09-09T09:11:42.961Z,17.13
2022-09-09T09:14:24.412Z,17.09
2022-09-09T09:16:59.159Z,17.03
2022-09-09T09:19:28.002Z,16.98
2022-09-09T09:21:57.137Z,16.94
2022-09-09T09:24:43.401Z,16.97
2022-09-09T09:27:15.664Z,17.02
2022-09-09T09:30:10.555Z,17.09
2022-09-09T09:32:35.972Z,17.15
2022-09-09T09:35:10.736Z,17.17
2022-09-09T09:37:37.478Z,17.21
2022-09-09T09:40:19.397Z,17.31
2022-09-09T09:43:00.607Z,17.52
2022-09-09T09:45:55.373Z,17.71
2022-09-09T09:48:28.663Z,17.75
2022-09-09T09:51:11.514Z,17.78
2022-09-09T09:53:39.911Z,17.79
2022-09-09T09:56:11.837Z,17.79
2022-09-09T09:58:47.553Z,17.77
2022-09-09T10:01:26.702Z,17.81
2022-09-09T10:04:17.280Z,17.82
2022-09-09T10:06:44.038Z,17.83
2022-09-09T10:09:25.807Z,17.93
2022-09-09T10:11:56.937Z,17.99
2022-09-09T10:14:34.257Z,18.01
2022-09-09T10:17:00.832Z,18.05
2022-09-09T10:19:35.231Z,18.07
2022-09-09T10:22:29.274Z,18.19
2022-09-09T10:25:31.485Z,18.42
2022-09-09T10:28:41.695Z,18.57
2022-09-09T10:31:57.851Z,18.61
2022-09-09T10:34:37.746Z,18.49
2022-09-09T10:37:23.715Z,18.41
2022-09-09T10:40:01.875Z,18.35
2022-09-09T10:42:32.551Z,18.52
2022-09-09T10:45:24.551Z,19.57
2022-09-09T10:48:13.515Z,20.53
2022-09-09T10:51:03.481Z,20.70
2022-09-09T10:53:44.262Z,20.40
2022-09-09T10:56:15.798Z,20.18
2022-09-09T10:58:47.876Z,19.93
2022-09-09T11:01:22.365Z,19.75
2022-09-09T11:03:56.582Z,19.61
2022-09-09T11:06:31.228Z,19.53
2022-09-09T11:09:00.746Z,19.37
2022-09-09T11:11:54.944Z,19.25
2022-09-09T11:14:27.918Z,19.18
2022-09-09T11:17:10.229Z,19.24
2022-09-09T11:19:44.723Z,19.43
2022-09-09T11:22:43.619Z,19.43
2022-09-09T11:25:38.220Z,19.52
2022-09-09T11:28:29.199Z,19.59
2022-09-09T11:31:14.194Z,19.64
2022-09-09T11:33:59.182Z,19.71
2022-09-09T11:36:35.828Z,19.70
2022-09-09T11:39:11.534Z,19.77
2022-09-09T11:41:38.691Z,19.80
2022-09-09T11:44:13.630Z,19.72
2022-09-09T11:46:42.617Z,19.55
2022-09-09T11:49:29.851Z,19.37
2022-09-09T11:51:56.491Z,19.20
2022-09-09T11:54:33.270Z,19.16
2022-09-09T11:57:00.602Z,19.26
2022-09-09T11:59:34.204Z,19.49
2022-09-09T12:02:15.626Z,19.60
2022-09-09T12:04:52.160Z,19.54
2022-09-09T12:07:34.009Z,19.41
2022-09-09T12:10:19.662Z,19.32
2022-09-09T12:12:47.885Z,19.27
2022-09-09T12:15:21.725Z,19.15
2022-09-09T12:18:02.685Z,19.07
2022-09-09T12:20:40.049Z,18.96
2022-09-09T12:23:34.486Z,18.91
2022-09-09T12:26:14.209Z,18.84
2022-09-09T12:28:55.867Z,18.84
2022-09-09T12:31:33.317Z,18.92
2022-09-09T12:34:12.319Z,18.96
2022-09-09T12:36:41.070Z,19.03
2022-09-09T12:39:36.895Z,19.19
2022-09-09T12:42:05.021Z,19.38
2022-09-09T12:44:33.343Z,19.56
2022-09-09T12:47:04.485Z,19.67
2022-09-09T12:49:39.571Z,19.72
2022-09-09T12:52:14.590Z,19.75
2022-09-09T12:54:47.812Z,19.81
2022-09-09T12:57:16.020Z,19.83
2022-09-09T12:59:49.153Z,19.91
2022-09-09T13:02:26.167Z,19.95
2022-09-09T13:04:54.973Z,19.94
2022-09-09T13:07:22.690Z,19.96
2022-09-09T13:09:50.338Z,19.93
2022-09-09T13:12:23.639Z,19.91
2022-09-09T13:14:57.168Z,19.88
2022-09-09T13:17:28.199Z,19.80
2022-09-09T13:19:56.652Z,19.68
2022-09-09T13:22:36.594Z,19.54
2022-09-09T13:25:12.830Z,19.33
